Latest Weather Observations for Coldstream

IDV60901

Issued at 7:35 am EDT Saturday 1 November 2014 (issued every 10 minutes, with the page automatically refreshed every 10 minutes)

About weather observations | Map of Melbourne area stations | Latest observations for Melbourne area | Other Formats
Station Details ID: 086383 Name: COLDSTREAM Lat: -37.72 Lon: 145.41 Height: 83.0 m
Data from the previous 72 hours. | See also: Recent months at Coldstream
Date/Time
EDT
Tmp

°C
App
Tmp
°C
Dew
Point
°C
Rel
Hum
%
Delta-T

°C
Wind Press
QNH
hPa
Press
MSL
hPa
Rain
since
9 am
mm
Dir
 
Spd
km/h
Gust
km/h
Spd
kts
Gust
kts
01/07:30am 13.4 12.6 12.8 96 0.3 W 9 13 5 7 1002.6 1002.5 -
01/07:00am 13.6 10.5 12.2 91 0.8 WSW 20 28 11 15 1001.7 1001.6 -
01/06:30am 14.3 11.3 12.0 86 1.2 WSW 19 28 10 15 1000.8 1000.8 -
01/06:00am 14.8 15.1 12.1 84 1.5 W 2 7 1 4 1000.0 1000.0 -
01/05:30am 14.8 15.0 11.8 82 1.6 NNW 2 6 1 3 999.5 999.5 -
01/05:00am 14.8 13.9 11.4 80 1.8 N 7 9 4 5 999.7 999.7 -
01/04:30am 15.1 14.8 11.5 79 1.9 N 4 7 2 4 999.6 999.6 -
01/04:00am 15.9 14.4 10.7 71 2.8 NW 9 11 5 6 1000.7 1000.7 -
01/03:30am 16.4 14.2 10.9 70 3.0 W 13 20 7 11 1001.3 1001.3 -
01/03:00am 16.7 15.2 11.8 73 2.7 WSW 11 17 6 9 1001.3 1001.3 -
01/02:30am 15.9 15.5 12.3 79 2.0 SSW 6 9 3 5 1000.7 1000.7 -
01/02:00am 16.1 16.8 12.3 78 2.1 CALM 0 0 0 0 1000.2 1000.2 0.0
01/01:30am 17.1 16.5 11.8 71 2.9 NNW 6 9 3 5 1000.3 1000.3 0.0
01/01:00am 18.3 15.5 11.4 64 3.8 WSW 17 26 9 14 999.4 999.4 0.0
01/12:30am 19.2 13.4 10.7 58 4.6 WSW 32 50 17 27 998.6 998.6 0.0
01/12:10am 24.2 17.3 6.5 32 9.2 WSW 32 57 17 31 997.6 997.6 0.0
01/12:00am 24.3 20.0 7.0 33 9.1 N 19 26 10 14 996.1 996.1 0.0
 
Date/Time
EDT
Tmp

°C
App
Tmp
°C
Dew
Point
°C
Rel
Hum
%
Delta-T

°C
Wind Press
QNH
hPa
Press
MSL
hPa
Rain
since
9 am
mm
Dir
 
Spd
km/h
Gust
km/h
Spd
kts
Gust
kts
31/11:30pm 23.7 20.7 7.8 36 8.4 N 13 19 7 10 996.6 996.6 0.0
31/11:12pm 21.7 19.6 9.6 46 6.5 N 11 17 6 9 996.9 996.9 0.0
31/11:00pm 16.5 15.6 12.5 77 2.2 N 9 15 5 8 997.2 997.2 0.0
31/10:30pm 15.6 16.6 13.1 85 1.4 CALM 0 6 0 3 997.7 997.7 0.0
31/10:00pm 15.6 16.4 12.5 82 1.7 CALM 0 0 0 0 998.0 998.0 0.0
31/09:30pm 17.2 18.2 13.3 78 2.2 CALM 0 6 0 3 998.3 998.3 0.0
31/09:00pm 17.8 18.6 12.5 71 3.0 CALM 0 0 0 0 998.4 998.4 0.0
31/08:30pm 19.4 21.1 15.1 76 2.5 CALM 0 0 0 0 998.7 998.7 0.0
31/08:00pm 20.9 22.1 14.8 68 3.6 N 2 6 1 3 998.9 998.9 0.0
31/07:30pm 23.8 23.6 11.8 47 6.8 N 4 9 2 5 999.2 999.2 0.0
31/07:00pm 25.7 23.9 9.5 36 9.0 N 9 13 5 7 999.6 999.6 0.0
31/06:30pm 26.6 24.2 9.9 35 9.3 N 13 17 7 9 1000.1 1000.1 0.0
31/06:00pm 28.5 25.1 10.7 33 10.2 N 19 28 10 15 1000.6 1000.6 0.0
31/05:30pm 28.4 25.6 10.1 32 10.3 N 15 28 8 15 1000.9 1000.9 0.0
31/05:00pm 29.5 24.2 6.8 24 12.2 N 24 35 13 19 1001.4 1001.4 0.0
31/04:30pm 29.2 23.2 7.2 25 11.9 N 28 46 15 25 1001.7 1001.6 0.0
31/04:24pm 29.4 23.3 6.7 24 12.2 N 28 46 15 25 1001.8 1001.7 0.0
31/04:00pm 29.3 24.5 7.2 25 12.0 N 22 33 12 18 1002.2 1002.1 0.0
31/03:30pm 29.2 24.5 7.7 26 11.7 N 22 37 12 20 1002.7 1002.6 0.0
31/03:00pm 28.5 25.6 12.4 37 9.5 N 19 33 10 18 1003.4 1003.3 0.0
31/02:30pm 27.6 22.8 9.0 31 10.3 N 24 39 13 21 1004.1 1004.1 0.0
31/02:00pm 26.8 21.7 10.5 36 9.2 N 28 35 15 19 1004.7 1004.7 0.0
31/01:30pm 26.2 21.6 9.5 35 9.2 N 24 33 13 18 1005.5 1005.5 0.0
31/01:00pm 25.2 21.6 9.9 38 8.5 NNW 19 35 10 19 1006.2 1006.2 0.0
31/12:30pm 24.1 21.1 10.7 43 7.5 NNW 17 26 9 14 1006.9 1006.9 0.0
31/12:00pm 24.2 20.4 9.0 38 8.2 N 19 32 10 17 1007.5 1007.5 0.0
31/11:30am 24.1 23.4 13.3 51 6.3 NNE 9 13 5 7 1007.9 1007.9 0.0
31/11:00am 22.3 21.4 13.6 58 5.1 N 11 17 6 9 1008.5 1008.5 0.0
31/10:30am 20.6 19.5 12.1 58 4.8 NE 9 13 5 7 1009.1 1009.1 0.0
31/10:00am 18.3 18.6 13.4 73 2.8 NNE 4 7 2 4 1009.4 1009.4 0.0
31/09:30am 16.7 17.2 12.8 78 2.2 ENE 2 11 1 6 1009.9 1009.9 0.0
31/09:00am 14.8 14.3 11.9 83 1.6 E 6 9 3 5 1010.0 1010.0 0.0
31/08:30am 12.9 11.9 11.1 89 0.9 E 7 9 4 5 1010.3 1010.3 0.0
31/08:00am 11.2 9.4 11.0 99 0.1 SE 11 15 6 8 1010.6 1010.6 0.0
31/07:30am 9.4 9.3 9.3 99 0.0 CALM 0 6 0 3 1010.8 1010.8 0.0
31/07:00am 6.9 6.2 6.8 99 0.0 CALM 0 0 0 0 1010.8 1010.8 0.0
31/06:30am 4.9 3.7 4.8 99 0.0 CALM 0 0 0 0 1010.9 1010.9 0.0
31/06:00am 4.4 3.1 4.3 99 0.0 CALM 0 0 0 0 1010.8 1010.8 0.0
31/05:30am 4.6 3.4 4.5 99 0.0 CALM 0 0 0 0 1010.9 1010.9 0.0
31/05:00am 5.2 4.1 5.1 99 0.0 CALM 0 0 0 0 1011.2 1011.2 0.0
31/04:30am 5.4 3.6 5.3 99 0.0 S 4 7 2 4 1011.3 1011.3 0.0
31/04:00am 5.3 4.2 5.0 98 0.1 CALM 0 0 0 0 1011.3 1011.3 0.0
31/03:30am 5.6 4.5 5.2 97 0.2 CALM 0 0 0 0 1011.5 1011.5 0.0
31/03:00am 6.5 5.6 6.1 97 0.2 CALM 0 0 0 0 1011.8 1011.8 0.0
31/02:30am 7.2 6.5 6.9 98 0.1 CALM 0 2 0 1 1012.1 1012.1 0.0
31/02:00am 7.4 6.3 6.8 96 0.3 S 2 6 1 3 1012.6 1012.6 0.0
31/01:30am 7.9 7.2 7.0 94 0.4 CALM 0 0 0 0 1013.4 1013.4 0.0
31/01:00am 8.8 6.6 8.0 95 0.4 ENE 9 11 5 6 1013.5 1013.5 0.0
31/12:30am 9.0 8.5 7.9 93 0.5 CALM 0 7 0 4 1013.8 1013.8 0.0
31/12:00am 9.6 8.0 8.2 91 0.7 ESE 6 9 3 5 1013.8 1013.8 0.0
 
Date/Time
EDT
Tmp

°C
App
Tmp
°C
Dew
Point
°C
Rel
Hum
%
Delta-T

°C
Wind Press
QNH
hPa
Press
MSL
hPa
Rain
since
9 am
mm
Dir
 
Spd
km/h
Gust
km/h
Spd
kts
Gust
kts
30/11:30pm 10.1 8.6 8.5 90 0.8 SE 6 11 3 6 1013.8 1013.8 0.0
30/11:00pm 11.2 9.6 8.9 86 1.1 SE 7 9 4 5 1013.8 1013.8 0.0
30/10:30pm 12.5 12.4 9.5 82 1.5 CALM 0 0 0 0 1013.6 1013.6 0.0
30/10:00pm 13.5 10.9 9.2 75 2.2 SSE 13 20 7 11 1013.3 1013.3 0.0
30/09:30pm 14.0 11.4 9.4 74 2.4 SSE 13 20 7 11 1013.2 1013.2 0.0
30/09:00pm 14.5 11.3 9.9 74 2.4 SSE 17 22 9 12 1013.0 1013.0 0.0
30/08:30pm 15.7 13.4 10.5 71 2.8 SSE 13 20 7 11 1012.6 1012.6 0.0
30/08:00pm 15.3 13.6 9.7 69 2.9 ESE 9 13 5 7 1012.5 1012.5 0.0
30/07:30pm 17.9 16.7 10.3 61 4.1 ESE 7 9 4 5 1012.5 1012.5 0.0
30/07:00pm 20.5 19.7 10.9 54 5.3 SW 6 9 3 5 1012.5 1012.5 0.0
30/06:30pm 20.8 19.0 9.4 48 6.1 SW 9 15 5 8 1012.6 1012.6 0.0
30/06:00pm 21.0 18.8 9.3 47 6.3 SW 11 19 6 10 1012.6 1012.6 0.0
30/05:30pm 21.6 19.2 10.1 48 6.3 SSW 13 19 7 10 1012.5 1012.5 0.0
30/05:00pm 21.6 18.2 10.7 50 6.0 WSW 19 24 10 13 1012.4 1012.4 0.0
30/04:30pm 22.0 20.1 11.7 52 5.8 SW 13 22 7 12 1012.2 1012.2 0.0
30/04:00pm 22.2 19.8 11.3 50 6.1 SW 15 24 8 13 1011.9 1011.9 0.0
30/03:30pm 22.4 20.4 11.5 50 6.1 WSW 13 22 7 12 1011.9 1011.9 0.0
30/03:00pm 22.4 21.5 11.2 49 6.2 WSW 7 15 4 8 1012.2 1012.2 0.0
30/02:30pm 22.0 21.3 13.1 57 5.1 W 9 15 5 8 1012.7 1012.7 0.0
30/02:00pm 21.1 19.3 12.0 56 5.1 SW 13 20 7 11 1013.0 1013.0 0.0
30/01:30pm 20.3 18.4 11.8 58 4.7 WSW 13 22 7 12 1013.5 1013.5 0.0
30/01:00pm 19.3 17.7 10.3 56 4.9 W 9 20 5 11 1013.8 1013.8 0.0
30/12:30pm 18.6 16.7 10.4 59 4.4 W 11 20 6 11 1014.4 1014.4 0.0
30/12:00pm 17.8 16.3 10.7 63 3.8 W 9 19 5 10 1014.7 1014.7 0.0
30/11:30am 17.3 15.6 11.3 68 3.3 W 11 19 6 10 1015.3 1015.3 0.0
30/11:00am 17.4 15.8 12.9 75 2.5 W 13 20 7 11 1015.6 1015.6 0.0
30/10:30am 16.4 14.3 11.3 72 2.8 WSW 13 19 7 10 1015.8 1015.8 0.0
30/10:00am 16.7 15.3 11.0 69 3.1 NW 9 17 5 9 1015.8 1015.8 0.0
30/09:30am 15.8 14.2 11.6 76 2.3 N 11 20 6 11 1015.6 1015.6 0.0
30/09:00am 13.5 12.8 11.4 87 1.1 NNE 6 11 3 6 1015.9 1015.9 0.0
30/08:30am 11.8 11.9 11.6 99 0.1 S 2 7 1 4 1016.3 1016.3 0.0
30/08:00am 10.0 10.0 9.9 99 0.1 CALM 0 0 0 0 1015.8 1015.8 0.0
30/07:30am 8.2 7.8 8.1 99 0.0 CALM 0 0 0 0 1015.6 1015.6 0.0
30/07:00am 7.3 5.9 7.2 99 0.0 NNW 4 7 2 4 1015.2 1015.2 0.0
30/06:30am 6.6 5.8 6.5 99 0.0 CALM 0 0 0 0 1014.8 1014.8 0.0
30/06:00am 6.9 6.1 6.6 98 0.1 CALM 0 0 0 0 1015.0 1015.0 0.0
30/05:30am 7.7 7.1 7.4 98 0.1 CALM 0 0 0 0 1015.1 1015.1 0.0
30/05:00am 8.4 7.2 8.0 97 0.2 ESE 4 7 2 4 1014.8 1014.8 0.0
30/04:30am 9.4 9.2 8.9 97 0.2 CALM 0 0 0 0 1014.7 1014.7 0.0
30/04:00am 10.2 10.3 10.0 99 0.1 CALM 0 0 0 0 1014.8 1014.8 0.0
30/03:30am 10.4 10.1 10.2 99 0.1 WSW 2 7 1 4 1014.9 1014.9 0.0
30/03:00am 10.1 9.4 9.9 99 0.1 ENE 4 9 2 5 1015.0 1015.0 0.0
30/02:30am 9.7 9.3 9.6 99 0.1 NE 2 7 1 4 1015.4 1015.4 0.0
30/02:00am 8.9 8.6 8.6 98 0.1 CALM 0 0 0 0 1015.7 1015.7 0.0
30/01:30am 8.5 8.0 7.9 96 0.3 CALM 0 0 0 0 1016.0 1016.0 0.0
30/01:00am 8.3 7.7 7.2 93 0.5 CALM 0 0 0 0 1016.1 1016.1 0.0
30/12:30am 9.5 8.0 8.3 92 0.6 ESE 6 7 3 4 1016.2 1016.2 0.0
30/12:00am 10.8 9.3 9.2 90 0.8 ENE 7 9 4 5 1016.2 1016.2 0.0
 
Date/Time
EDT
Tmp

°C
App
Tmp
°C
Dew
Point
°C
Rel
Hum
%
Delta-T

°C
Wind Press
QNH
hPa
Press
MSL
hPa
Rain
since
9 am
mm
Dir
 
Spd
km/h
Gust
km/h
Spd
kts
Gust
kts
29/11:30pm 11.8 10.4 9.7 87 1.1 S 7 13 4 7 1016.3 1016.3 0.0
29/11:00pm 12.0 10.8 9.7 86 1.2 SSE 6 11 3 6 1016.5 1016.5 0.0
29/10:30pm 12.2 11.0 9.6 84 1.3 SE 6 11 3 6 1016.7 1016.7 0.0
29/10:00pm 13.3 11.2 9.7 79 1.8 SSE 11 17 6 9 1016.5 1016.5 0.0
29/09:30pm 14.0 11.1 9.6 75 2.3 SSE 15 20 8 11 1016.2 1016.2 0.0
29/09:00pm 15.0 12.1 9.8 71 2.7 SSE 15 26 8 14 1015.7 1015.7 0.0
29/08:30pm 16.0 12.9 10.3 69 3.0 SSE 17 26 9 14 1015.0 1015.0 0.0
29/08:00pm 16.1 15.9 10.4 69 3.0 SSE 2 7 1 4 1014.5 1014.5 0.0
29/07:30pm 18.9 17.8 10.7 59 4.4 S 7 11 4 6 1014.4 1014.4 0.0
29/07:00pm 20.0 18.5 10.7 55 5.1 SSW 9 15 5 8 1014.2 1014.2 0.0
29/06:30pm 20.8 20.2 11.7 56 5.1 NW 6 9 3 5 1013.9 1014.0 0.0
29/06:00pm 21.2 19.9 10.1 49 6.0 NNW 7 11 4 6 1014.1 1014.1 0.0
29/05:30pm 21.3 20.4 11.3 53 5.6 N 7 13 4 7 1014.2 1014.2 0.0
29/05:00pm 21.6 21.6 11.3 52 5.7 NNW 2 7 1 4 1014.2 1014.2 0.0
29/04:30pm 20.8 19.0 10.9 53 5.4 NNE 11 17 6 9 1014.5 1014.5 0.0
29/04:00pm 20.6 19.1 10.4 52 5.5 NNE 9 13 5 7 1014.8 1014.8 0.0
29/03:30pm 20.8 20.0 10.9 53 5.4 WNW 6 13 3 7 1015.1 1015.1 0.0
29/03:00pm 19.9 17.7 9.5 51 5.5 W 11 19 6 10 1015.9 1015.9 0.0
29/02:30pm 19.3 16.2 10.3 56 4.9 WSW 17 22 9 12 1016.3 1016.3 0.0
29/02:00pm 19.0 17.1 10.6 58 4.5 WNW 11 17 6 9 1016.8 1016.8 0.0
29/01:30pm 17.9 16.8 9.8 59 4.3 W 6 17 3 9 1017.2 1017.2 0.0
29/01:00pm 17.1 15.6 9.3 60 4.1 WNW 7 13 4 7 1017.6 1017.6 0.0
29/12:30pm 17.0 15.5 10.4 65 3.5 NW 9 17 5 9 1018.0 1018.0 0.0
29/12:00pm 15.9 13.8 9.8 67 3.2 NNW 11 17 6 9 1018.5 1018.5 0.0
29/11:30am 15.6 13.2 8.6 63 3.6 NNW 11 19 6 10 1018.8 1018.8 0.0
29/11:00am 14.1 12.1 7.2 63 3.4 NW 7 15 4 8 1019.2 1019.2 0.0
29/10:30am 13.4 11.7 8.3 71 2.5 NW 7 11 4 6 1019.3 1019.3 0.0
29/10:00am 13.9 12.5 8.9 72 2.5 N 6 13 3 7 1019.3 1019.3 0.0
29/09:30am 13.0 11.3 7.7 70 2.6 N 6 11 3 6 1019.3 1019.3 0.0
29/09:00am 12.5 11.0 9.0 79 1.8 N 7 11 4 6 1019.3 1019.3 0.4
29/08:30am 11.8 10.1 8.3 79 1.7 N 7 9 4 5 1019.2 1019.2 0.4
29/08:00am 11.0 10.3 8.6 85 1.2 N 2 7 1 4 1019.1 1019.1 0.4

Latest Capital City Observations: Canberra | Sydney | Melbourne | Brisbane | Adelaide | Perth | Hobart | Darwin

Other Formats:

Comma delimited format used in spreadsheet applications
http://www.bom.gov.au/fwo/IDV60901/IDV60901.94864.axf

JavaScript Object Notation format (JSON) in row-major order
http://www.bom.gov.au/fwo/IDV60901/IDV60901.94864.json